createdAt,value
2018-04-16T00:02:23.832Z,87.18
2018-04-16T00:04:53.789Z,87.47
2018-04-16T00:07:24.336Z,87.81
2018-04-16T00:09:52.711Z,87.68
2018-04-16T00:12:21.202Z,87.85
2018-04-16T00:14:50.189Z,87.42
2018-04-16T00:17:19.296Z,87.17
2018-04-16T00:19:47.517Z,87.04
2018-04-16T00:22:16.566Z,86.53
2018-04-16T00:24:45.067Z,86.21
2018-04-16T00:27:14.090Z,86.22
2018-04-16T00:29:42.641Z,86.04
2018-04-16T00:32:18.234Z,85.99
2018-04-16T00:34:53.741Z,85.51
2018-04-16T00:37:29.326Z,85.08
2018-04-16T00:40:03.311Z,85.11
2018-04-16T00:42:39.760Z,85.41
2018-04-16T00:45:23.260Z,85.25
2018-04-16T00:47:57.910Z,85.29
2018-04-16T00:50:33.431Z,85.31
2018-04-16T00:53:08.702Z,85.03
2018-04-16T00:55:43.244Z,85.01
2018-04-16T00:58:18.110Z,85.14
2018-04-16T01:00:58.497Z,85.39
2018-04-16T01:06:18.508Z,85.13
2018-04-16T01:08:52.254Z,84.79
2018-04-16T01:11:26.797Z,84.81
2018-04-16T01:14:02.187Z,84.53
2018-04-16T01:19:16.562Z,84.33
2018-04-16T01:21:50.172Z,84.42
2018-04-16T01:24:26.939Z,84.28
2018-04-16T01:30:17.647Z,84.00
2018-04-16T01:32:54.021Z,84.85
2018-04-16T01:35:28.758Z,84.96
2018-04-16T01:38:12.109Z,84.83
2018-04-16T01:40:46.583Z,85.28
2018-04-16T01:43:24.871Z,85.60
2018-04-16T01:45:58.817Z,85.36
2018-04-16T01:48:34.476Z,85.35
2018-04-16T01:51:08.377Z,85.22
2018-04-16T01:53:43.859Z,86.01
2018-04-16T01:56:19.358Z,85.91
2018-04-16T01:58:54.921Z,85.99
2018-04-16T02:04:42.256Z,86.19
2018-04-16T02:07:17.018Z,85.68
2018-04-16T02:09:55.354Z,85.50
2018-04-16T02:12:30.793Z,85.71
2018-04-16T02:18:11.130Z,85.79
2018-04-16T02:20:46.620Z,85.77
2018-04-16T02:23:29.847Z,85.82
2018-04-16T02:26:03.840Z,85.91
2018-04-16T02:28:38.422Z,85.91
2018-04-16T02:31:13.941Z,85.43
2018-04-16T02:33:48.617Z,85.72
2018-04-16T02:39:01.452Z,86.28
2018-04-16T02:41:36.896Z,86.52
2018-04-16T02:44:10.706Z,86.46
2018-04-16T02:46:48.207Z,86.59
2018-04-16T02:49:22.176Z,87.03
2018-04-16T02:54:37.835Z,86.86
2018-04-16T02:57:12.400Z,86.99
2018-04-16T03:13:28.425Z,87.56
2018-04-16T03:16:02.361Z,87.20
2018-04-16T03:18:36.304Z,87.01
2018-04-16T03:21:15.003Z,87.21
2018-04-16T03:23:50.455Z,87.46
2018-04-16T03:26:26.085Z,87.40
2018-04-16T03:28:59.865Z,87.28
2018-04-16T03:31:34.803Z,87.17
2018-04-16T03:34:10.420Z,87.64
2018-04-16T03:36:44.203Z,87.72
2018-04-16T03:39:18.903Z,87.36
2018-04-16T03:41:52.881Z,87.03
2018-04-16T03:44:26.812Z,87.25
2018-04-16T03:47:02.214Z,86.75
2018-04-16T03:49:36.896Z,87.07
2018-04-16T03:52:16.580Z,87.09
2018-04-16T03:58:01.924Z,87.50
2018-04-16T04:00:30.279Z,87.75
2018-04-16T04:02:58.509Z,87.93
2018-04-16T04:05:26.833Z,87.85
2018-04-16T04:07:57.801Z,87.92
2018-04-16T04:10:26.882Z,87.77
2018-04-16T04:12:55.353Z,87.30
2018-04-16T04:15:25.498Z,87.14
2018-04-16T04:17:55.414Z,87.34
2018-04-16T04:20:25.487Z,87.47
2018-04-16T04:26:19.288Z,87.64
2018-04-16T04:31:36.340Z,87.56
2018-04-16T04:34:06.334Z,87.26
2018-04-16T04:36:36.453Z,86.92
2018-04-16T04:39:07.023Z,87.82
2018-04-16T04:41:41.718Z,88.15
2018-04-16T04:44:09.966Z,88.21
2018-04-16T04:46:38.472Z,87.99
2018-04-16T04:49:08.498Z,88.34
2018-04-16T04:51:37.482Z,88.77
2018-04-16T04:54:08.946Z,89.03
2018-04-16T04:56:39.381Z,89.32
2018-04-16T04:59:08.417Z,89.71
2018-04-16T05:01:41.455Z,89.71
2018-04-16T05:04:10.041Z,89.85
2018-04-16T05:06:40.665Z,90.22
2018-04-16T05:09:10.918Z,90.15
2018-04-16T05:11:43.161Z,90.33
2018-04-16T05:14:12.205Z,90.34
2018-04-16T05:16:42.644Z,90.43
2018-04-16T05:19:14.640Z,90.37
2018-04-16T05:21:42.928Z,90.03
2018-04-16T05:24:13.957Z,89.86
2018-04-16T05:26:42.977Z,90.28
2018-04-16T05:29:13.000Z,90.44
2018-04-16T05:31:43.086Z,90.56
2018-04-16T05:34:13.008Z,90.56
2018-04-16T05:36:43.160Z,90.50
2018-04-16T05:39:11.855Z,90.44
2018-04-16T05:41:41.889Z,90.51
2018-04-16T05:44:10.866Z,90.47
2018-04-16T05:46:40.880Z,90.19
2018-04-16T05:49:13.210Z,90.15
2018-04-16T05:51:42.797Z,90.26
2018-04-16T05:54:17.129Z,90.39
2018-04-16T05:56:48.395Z,90.39
2018-04-16T05:59:18.189Z,90.52
2018-04-16T06:01:46.533Z,89.97
2018-04-16T06:04:16.159Z,89.59
2018-04-16T06:06:45.857Z,89.55
2018-04-16T06:09:16.072Z,89.60
2018-04-16T06:11:46.548Z,89.38
2018-04-16T06:14:17.476Z,89.21
2018-04-16T06:16:46.382Z,89.72
2018-04-16T06:19:16.287Z,89.75
2018-04-16T06:21:45.476Z,89.67
2018-04-16T06:24:16.977Z,90.09
2018-04-16T06:26:46.140Z,89.82
2018-04-16T06:29:15.155Z,89.79
2018-04-16T06:31:44.970Z,90.13
2018-04-16T06:34:13.712Z,90.09
2018-04-16T06:36:43.563Z,89.49
2018-04-16T06:39:14.088Z,89.81
2018-04-16T06:41:57.288Z,90.09
2018-04-16T06:44:25.583Z,89.83
2018-04-16T06:46:53.970Z,89.98
2018-04-16T06:49:22.332Z,89.94
2018-04-16T06:51:53.285Z,89.64
2018-04-16T06:54:21.646Z,89.61
2018-04-16T06:56:50.139Z,89.89
2018-04-16T06:59:18.505Z,90.00
2018-04-16T07:01:48.536Z,89.96
2018-04-16T07:04:16.926Z,89.81
2018-04-16T07:06:47.949Z,90.19
2018-04-16T07:09:16.224Z,90.33
2018-04-16T07:11:44.534Z,90.41
2018-04-16T07:16:49.593Z,90.61
2018-04-16T07:19:25.391Z,90.57
2018-04-16T07:21:54.425Z,90.65
2018-04-16T07:24:26.879Z,90.97
2018-04-16T07:26:55.302Z,90.60
2018-04-16T07:29:23.769Z,90.72
2018-04-16T07:31:52.150Z,91.12
2018-04-16T07:34:20.641Z,91.17
2018-04-16T07:36:50.619Z,90.95
2018-04-16T07:39:19.048Z,91.19
2018-04-16T07:41:49.098Z,90.92
2018-04-16T07:44:19.345Z,90.90
2018-04-16T07:46:49.363Z,91.25
2018-04-16T07:49:17.901Z,90.96
2018-04-16T07:51:47.954Z,91.35
2018-04-16T07:54:21.007Z,91.13
2018-04-16T07:56:50.012Z,91.28
2018-04-16T07:59:20.469Z,91.38
2018-04-16T08:01:50.448Z,91.13
2018-04-16T08:04:18.743Z,90.86
2018-04-16T08:06:47.128Z,91.08
2018-04-16T08:09:16.238Z,90.79
2018-04-16T08:11:47.754Z,90.65
2018-04-16T08:14:16.038Z,90.64
2018-04-16T08:16:45.176Z,90.47
2018-04-16T08:19:15.272Z,90.35
2018-04-16T08:21:45.224Z,90.79
2018-04-16T08:24:15.833Z,91.05
2018-04-16T08:26:45.140Z,91.21
2018-04-16T08:29:15.339Z,90.66
2018-04-16T08:31:43.813Z,90.73
2018-04-16T08:34:14.898Z,90.49
2018-04-16T08:36:43.375Z,90.60
2018-04-16T08:39:24.655Z,90.37
2018-04-16T08:41:52.981Z,91.07
2018-04-16T08:44:21.323Z,90.86
2018-04-16T08:46:49.803Z,90.57
2018-04-16T08:49:20.734Z,90.57
2018-04-16T08:51:50.789Z,90.60
2018-04-16T08:54:19.256Z,90.61
2018-04-16T08:56:47.681Z,90.85
2018-04-16T08:59:16.117Z,90.77
2018-04-16T09:01:44.661Z,90.78
2018-04-16T09:04:39.117Z,90.92
2018-04-16T09:07:09.204Z,90.55
2018-04-16T09:09:37.643Z,90.80
2018-04-16T09:12:05.983Z,91.23
2018-04-16T09:14:36.157Z,91.30
2018-04-16T09:19:39.187Z,91.51
2018-04-16T09:22:17.832Z,91.38
2018-04-16T09:24:49.638Z,91.30
2018-04-16T09:27:18.160Z,90.76
2018-04-16T09:29:48.299Z,90.28
2018-04-16T09:32:18.511Z,89.84
2018-04-16T09:34:48.559Z,88.99
2018-04-16T09:37:18.588Z,90.21
2018-04-16T09:39:48.700Z,89.39
2018-04-16T09:42:17.665Z,89.79
2018-04-16T09:44:48.670Z,89.38
2018-04-16T09:47:20.869Z,88.60
2018-04-16T09:49:49.278Z,88.01
2018-04-16T09:52:19.431Z,87.18
2018-04-16T09:54:49.641Z,87.41
2018-04-16T09:57:19.625Z,87.20
2018-04-16T09:59:49.653Z,87.00
2018-04-16T10:02:28.671Z,87.29
2018-04-16T10:04:58.643Z,86.13
2018-04-16T10:07:30.798Z,86.02
2018-04-16T10:10:00.960Z,87.66
2018-04-16T10:12:29.257Z,87.73
2018-04-16T10:14:59.651Z,86.80
2018-04-16T10:17:29.705Z,85.46
2018-04-16T10:19:58.193Z,85.55
2018-04-16T10:22:28.271Z,85.32
2018-04-16T10:24:56.591Z,86.21
2018-04-16T10:29:57.804Z,85.05
2018-04-16T10:32:26.191Z,85.23
2018-04-16T10:34:56.255Z,84.16
2018-04-16T10:37:25.262Z,84.67
2018-04-16T10:39:56.520Z,83.86
2018-04-16T10:42:26.405Z,82.67
2018-04-16T10:44:54.882Z,82.74
2018-04-16T10:47:25.870Z,82.89
2018-04-16T10:49:56.839Z,81.38
2018-04-16T10:52:33.527Z,83.84
2018-04-16T10:55:03.730Z,82.72
2018-04-16T10:57:33.789Z,81.05
2018-04-16T11:00:06.185Z,82.61
2018-04-16T11:02:37.098Z,81.82
2018-04-16T11:05:05.510Z,81.32
2018-04-16T11:07:33.995Z,81.26
2018-04-16T11:10:03.714Z,80.35
2018-04-16T11:12:32.894Z,80.88
2018-04-16T11:15:02.748Z,80.63
2018-04-16T11:17:32.674Z,78.00
2018-04-16T11:20:02.368Z,79.86
2018-04-16T11:22:34.156Z,79.96
2018-04-16T11:25:03.568Z,80.21
2018-04-16T11:27:36.298Z,78.64
2018-04-16T11:30:06.466Z,79.81
2018-04-16T11:32:36.253Z,79.80
2018-04-16T11:35:05.967Z,78.94
2018-04-16T11:37:34.435Z,76.66
2018-04-16T11:40:04.394Z,78.17
2018-04-16T11:42:33.691Z,78.69
2018-04-16T11:45:05.129Z,76.45
2018-04-16T11:47:35.083Z,78.20
2018-04-16T11:50:05.107Z,75.86
2018-04-16T11:52:34.687Z,76.29
2018-04-16T11:55:05.254Z,76.73
2018-04-16T11:57:35.786Z,77.82
2018-04-16T12:00:05.681Z,76.00
2018-04-16T12:02:35.701Z,76.44
2018-04-16T12:05:05.426Z,75.13
2018-04-16T12:07:35.113Z,75.55
2018-04-16T12:10:03.786Z,74.49
2018-04-16T12:12:33.973Z,72.54
2018-04-16T12:15:03.823Z,73.12
2018-04-16T12:17:32.821Z,73.44
2018-04-16T12:20:04.087Z,74.27
2018-04-16T12:22:33.875Z,73.70
2018-04-16T12:25:03.076Z,73.49
2018-04-16T12:27:38.347Z,72.50
2018-04-16T12:30:09.443Z,71.16
2018-04-16T12:32:37.775Z,72.18
2018-04-16T12:35:06.128Z,72.66
2018-04-16T12:37:34.620Z,72.60
2018-04-16T12:40:17.304Z,71.32
2018-04-16T12:42:51.536Z,72.69
2018-04-16T12:45:20.018Z,74.03
2018-04-16T12:47:54.238Z,71.61
2018-04-16T12:50:22.642Z,69.55
2018-04-16T12:52:50.998Z,68.75
2018-04-16T12:55:41.108Z,69.90
2018-04-16T12:58:10.308Z,69.87
2018-04-16T13:00:42.447Z,69.33
2018-04-16T13:03:12.586Z,69.38
2018-04-16T13:08:15.679Z,69.64
2018-04-16T13:10:44.182Z,68.38
2018-04-16T13:13:20.011Z,68.43
2018-04-16T13:15:48.395Z,66.68
2018-04-16T13:18:18.444Z,66.72
2018-04-16T13:20:47.719Z,67.78
2018-04-16T13:23:23.590Z,66.47
2018-04-16T13:25:59.221Z,66.10
2018-04-16T13:28:29.069Z,66.67
2018-04-16T13:30:58.911Z,66.93
2018-04-16T13:33:34.478Z,69.25
2018-04-16T13:36:04.360Z,66.91
2018-04-16T13:38:40.471Z,65.38
2018-04-16T13:41:10.012Z,65.85
2018-04-16T13:43:40.834Z,65.59
2018-04-16T13:46:10.061Z,64.93
2018-04-16T13:48:39.097Z,66.72
2018-04-16T13:51:08.055Z,65.66
2018-04-16T13:53:38.905Z,67.03
2018-04-16T13:56:09.280Z,66.60
2018-04-16T13:58:39.947Z,67.24
2018-04-16T14:01:14.994Z,66.17
2018-04-16T14:03:44.494Z,67.15
2018-04-16T14:06:20.469Z,67.71
2018-04-16T14:08:50.159Z,68.28
2018-04-16T14:11:25.331Z,66.10
2018-04-16T14:13:55.108Z,67.05
2018-04-16T14:16:25.062Z,66.01
2018-04-16T14:18:56.328Z,65.98
2018-04-16T14:21:26.182Z,66.02
2018-04-16T14:24:02.115Z,65.48
2018-04-16T14:26:37.478Z,65.79
2018-04-16T14:29:07.542Z,65.80
2018-04-16T14:31:43.412Z,66.16
2018-04-16T14:34:17.756Z,65.35
2018-04-16T14:36:46.996Z,65.00
2018-04-16T14:39:21.988Z,65.56
2018-04-16T14:41:56.413Z,65.80
2018-04-16T14:44:26.632Z,66.52
2018-04-16T14:46:56.376Z,67.12
2018-04-16T14:49:27.694Z,67.51
2018-04-16T14:51:56.787Z,67.59
2018-04-16T14:54:28.599Z,67.93
2018-04-16T14:56:58.453Z,68.15
2018-04-16T14:59:32.861Z,68.66
2018-04-16T15:02:02.730Z,69.46
2018-04-16T15:04:38.837Z,69.65
2018-04-16T15:07:08.375Z,70.59
2018-04-16T15:09:42.722Z,71.40
2018-04-16T15:12:13.077Z,71.53
2018-04-16T15:14:43.183Z,71.89
2018-04-16T15:17:13.609Z,72.89
2018-04-16T15:19:46.191Z,72.67
2018-04-16T15:22:19.640Z,73.31
2018-04-16T15:24:50.090Z,73.35
2018-04-16T15:27:21.253Z,73.45
2018-04-16T15:29:50.472Z,71.81
2018-04-16T15:32:19.498Z,72.85
2018-04-16T15:34:50.971Z,72.14
2018-04-16T15:37:20.131Z,72.38
2018-04-16T15:39:49.093Z,72.17
2018-04-16T15:42:18.988Z,71.55
2018-04-16T15:44:52.401Z,71.95
2018-04-16T15:47:25.663Z,72.32
2018-04-16T15:49:54.281Z,71.86
2018-04-16T15:52:23.905Z,72.61
2018-04-16T15:54:53.286Z,70.60
2018-04-16T15:57:22.285Z,72.02
2018-04-16T15:59:50.771Z,72.14
2018-04-16T16:02:23.325Z,72.25
2018-04-16T16:04:52.984Z,72.46
2018-04-16T16:07:22.364Z,72.64
2018-04-16T16:09:51.979Z,72.86
2018-04-16T16:12:21.491Z,72.76
2018-04-16T16:14:52.191Z,73.31
2018-04-16T16:17:27.869Z,73.71
2018-04-16T16:19:59.039Z,73.96
2018-04-16T16:22:29.764Z,73.85
2018-04-16T16:25:00.135Z,74.39
2018-04-16T16:27:34.718Z,75.39
2018-04-16T16:30:09.570Z,76.04
2018-04-16T16:35:24.969Z,76.33
2018-04-16T16:37:56.229Z,76.16
2018-04-16T16:40:24.642Z,75.08
2018-04-16T16:42:53.144Z,69.60
2018-04-16T16:45:23.251Z,69.54
2018-04-16T16:47:53.336Z,71.45
2018-04-16T16:50:21.870Z,74.91
2018-04-16T16:52:52.105Z,75.53
2018-04-16T16:55:22.263Z,79.11
2018-04-16T16:57:52.510Z,79.95
2018-04-16T17:00:26.919Z,81.70
2018-04-16T17:02:57.044Z,80.62
2018-04-16T17:05:46.043Z,81.88
2018-04-16T17:08:17.004Z,82.33
2018-04-16T17:10:45.431Z,80.12
2018-04-16T17:13:15.726Z,80.73
2018-04-16T17:15:51.259Z,80.69
2018-04-16T17:18:23.086Z,80.10
2018-04-16T17:20:54.181Z,80.12
2018-04-16T17:23:25.950Z,81.73
2018-04-16T17:25:56.019Z,80.27
2018-04-16T17:28:25.541Z,81.38
2018-04-16T17:30:54.959Z,81.47
2018-04-16T17:33:25.972Z,80.87
2018-04-16T17:35:57.137Z,80.33
2018-04-16T17:38:27.117Z,80.14
2018-04-16T17:40:57.274Z,80.07
2018-04-16T17:43:27.395Z,79.15
2018-04-16T17:45:58.458Z,79.53
2018-04-16T17:48:26.818Z,79.48
2018-04-16T17:50:56.545Z,80.42
2018-04-16T17:53:26.510Z,79.70
2018-04-16T17:55:56.398Z,79.49
2018-04-16T17:58:26.210Z,79.64
2018-04-16T18:00:55.135Z,80.24
2018-04-16T18:03:25.064Z,80.55
2018-04-16T18:05:54.729Z,81.22
2018-04-16T18:08:24.528Z,81.18
2018-04-16T18:10:54.147Z,80.28
2018-04-16T18:13:23.750Z,79.92
2018-04-16T18:15:53.585Z,80.16
2018-04-16T18:18:23.659Z,80.66
2018-04-16T18:20:55.175Z,80.85
2018-04-16T18:23:25.155Z,81.49
2018-04-16T18:25:54.752Z,82.00
2018-04-16T18:28:25.259Z,82.55
2018-04-16T18:30:55.728Z,82.53
2018-04-16T18:33:25.351Z,82.76
2018-04-16T18:35:54.067Z,83.29
2018-04-16T18:38:24.120Z,83.04
2018-04-16T18:40:53.996Z,83.83
2018-04-16T18:43:24.601Z,83.97
2018-04-16T18:45:54.561Z,84.68
2018-04-16T18:48:24.664Z,84.70
2018-04-16T18:50:54.854Z,84.46
2018-04-16T18:53:24.715Z,84.50
2018-04-16T18:55:54.425Z,84.57
2018-04-16T18:58:24.538Z,84.83
2018-04-16T19:00:55.568Z,85.26
2018-04-16T19:03:26.925Z,85.95
2018-04-16T19:06:01.692Z,85.82
2018-04-16T19:08:31.370Z,85.24
2018-04-16T19:11:00.978Z,85.21
2018-04-16T19:13:29.599Z,84.30
2018-04-16T19:15:59.434Z,84.27
2018-04-16T19:18:29.401Z,84.56
2018-04-16T19:21:05.103Z,84.80
2018-04-16T19:23:35.058Z,84.75
2018-04-16T19:26:04.302Z,84.84
2018-04-16T19:28:32.713Z,85.38
2018-04-16T19:31:01.826Z,85.58
2018-04-16T19:33:37.051Z,85.89
2018-04-16T19:36:05.759Z,85.75
2018-04-16T19:38:35.747Z,86.19
2018-04-16T19:41:05.315Z,86.61
2018-04-16T19:43:38.005Z,86.94
2018-04-16T19:46:07.733Z,87.38
2018-04-16T19:48:42.737Z,87.67
2018-04-16T19:51:11.510Z,87.90
2018-04-16T19:53:41.318Z,88.39
2018-04-16T19:56:18.583Z,88.46
2018-04-16T19:58:48.692Z,88.23
2018-04-16T20:01:18.681Z,88.37
2018-04-16T20:03:53.724Z,88.58
2018-04-16T20:06:23.549Z,88.81
2018-04-16T20:08:53.491Z,88.98
2018-04-16T20:11:24.408Z,88.88
2018-04-16T20:13:52.872Z,88.66
2018-04-16T20:16:21.406Z,88.29
2018-04-16T20:18:49.897Z,88.23
2018-04-16T20:21:18.381Z,88.39
2018-04-16T20:23:46.866Z,88.62
2018-04-16T20:26:15.246Z,88.72
2018-04-16T20:28:43.603Z,88.50
2018-04-16T20:31:12.010Z,88.50
2018-04-16T20:33:42.078Z,88.42
2018-04-16T20:36:10.394Z,88.19
2018-04-16T20:38:38.861Z,87.90
2018-04-16T20:41:09.829Z,87.65
2018-04-16T20:43:38.222Z,87.46
2018-04-16T20:46:06.809Z,87.45
2018-04-16T20:48:36.760Z,87.61
2018-04-16T20:51:05.828Z,87.74
2018-04-16T20:53:34.936Z,87.58
2018-04-16T20:56:04.938Z,87.23
2018-04-16T20:58:33.334Z,87.11
2018-04-16T21:01:01.808Z,87.35
2018-04-16T21:03:30.814Z,87.53
2018-04-16T21:05:59.187Z,87.87
2018-04-16T21:08:29.200Z,88.00
2018-04-16T21:10:59.292Z,88.04
2018-04-16T21:13:29.417Z,88.86
2018-04-16T21:15:59.433Z,88.93
2018-04-16T21:18:29.792Z,88.82
2018-04-16T21:20:58.866Z,88.79
2018-04-16T21:23:27.900Z,89.09
2018-04-16T21:25:56.296Z,89.22
2018-04-16T21:28:24.768Z,89.72
2018-04-16T21:30:53.264Z,90.51
2018-04-16T21:33:24.194Z,90.74
2018-04-16T21:35:54.254Z,90.54
2018-04-16T21:38:23.621Z,90.70
2018-04-16T21:40:53.719Z,90.81
2018-04-16T21:43:30.192Z,90.91
2018-04-16T21:46:01.172Z,91.12
2018-04-16T21:48:31.129Z,91.18
2018-04-16T21:51:00.190Z,91.32
2018-04-16T21:53:32.274Z,91.09
2018-04-16T21:56:02.276Z,90.99
2018-04-16T21:58:32.220Z,90.78
2018-04-16T22:01:03.138Z,90.85
2018-04-16T22:03:31.488Z,91.05
2018-04-16T22:06:01.563Z,91.25
2018-04-16T22:08:29.889Z,91.33
2018-04-16T22:10:59.919Z,91.63
2018-04-16T22:13:28.419Z,91.73
2018-04-16T22:15:56.763Z,91.59
2018-04-16T22:18:28.089Z,91.74
2018-04-16T22:21:00.116Z,92.08
2018-04-16T22:23:30.300Z,92.28
2018-04-16T22:26:02.355Z,92.42
2018-04-16T22:28:34.470Z,92.50
2018-04-16T22:31:05.575Z,92.47
2018-04-16T22:33:38.777Z,92.34
2018-04-16T22:36:10.414Z,92.12
2018-04-16T22:38:45.467Z,91.89
2018-04-16T22:41:27.014Z,91.67
2018-04-16T22:43:56.224Z,91.56
2018-04-16T22:46:31.195Z,91.85
2018-04-16T22:49:04.170Z,92.49
2018-04-16T22:51:41.090Z,92.80
2018-04-16T22:54:18.925Z,92.92
2018-04-16T22:56:47.442Z,92.84
2018-04-16T22:59:17.632Z,93.00
2018-04-16T23:01:51.498Z,92.76
2018-04-16T23:04:23.409Z,92.62
2018-04-16T23:06:54.535Z,92.37
2018-04-16T23:09:27.629Z,92.11
2018-04-16T23:12:00.708Z,91.80
2018-04-16T23:14:29.625Z,91.63
2018-04-16T23:17:03.356Z,91.24
2018-04-16T23:19:36.207Z,91.24
2018-04-16T23:22:08.434Z,91.30
2018-04-16T23:24:38.821Z,91.09
2018-04-16T23:27:18.826Z,90.86
2018-04-16T23:29:49.119Z,90.71
2018-04-16T23:32:19.628Z,90.69
2018-04-16T23:34:53.046Z,90.70
2018-04-16T23:37:23.069Z,90.56
2018-04-16T23:39:51.442Z,90.54
2018-04-16T23:42:19.914Z,90.57
2018-04-16T23:44:48.326Z,90.68
2018-04-16T23:47:18.294Z,90.90
2018-04-16T23:49:48.335Z,90.77
2018-04-16T23:52:18.846Z,90.89
2018-04-16T23:54:49.424Z,91.12
2018-04-16T23:57:17.938Z,91.10
2018-04-16T23:59:46.339Z,91.26
